sensor_id;sensor_type;location;lat;lon;timestamp;pressure;altitude;pressure_sealevel;temperature;humidity
46015;BME280;36844;51.898;-0.874;2024-02-14T00:00:53;99822.16;;;18.85;
46015;BME280;36844;51.898;-0.874;2024-02-14T00:03:18;99815.72;;;18.79;
46015;BME280;36844;51.898;-0.874;2024-02-14T00:05:45;99844.06;;;18.87;
46015;BME280;36844;51.898;-0.874;2024-02-14T00:08:11;99834.66;;;18.75;
46015;BME280;36844;51.898;-0.874;2024-02-14T00:10:39;99831.97;;;18.75;
46015;BME280;36844;51.898;-0.874;2024-02-14T00:13:04;99822.09;;;18.69;
46015;BME280;36844;51.898;-0.874;2024-02-14T00:15:29;99846.50;;;18.82;
46015;BME280;36844;51.898;-0.874;2024-02-14T00:17:55;99836.53;;;18.78;
46015;BME280;36844;51.898;-0.874;2024-02-14T00:20:20;99834.75;;;18.72;
46015;BME280;36844;51.898;-0.874;2024-02-14T00:22:47;99833.19;;;18.71;
46015;BME280;36844;51.898;-0.874;2024-02-14T00:25:13;99832.44;;;18.70;
46015;BME280;36844;51.898;-0.874;2024-02-14T00:27:38;99821.84;;;18.60;
46015;BME280;36844;51.898;-0.874;2024-02-14T00:30:05;99824.22;;;18.58;
46015;BME280;36844;51.898;-0.874;2024-02-14T00:32:30;99831.41;;;18.64;
46015;BME280;36844;51.898;-0.874;2024-02-14T00:34:56;99837.19;;;18.66;
46015;BME280;36844;51.898;-0.874;2024-02-14T00:37:21;99839.91;;;18.63;
46015;BME280;36844;51.898;-0.874;2024-02-14T00:39:46;99848.00;;;18.63;
46015;BME280;36844;51.898;-0.874;2024-02-14T00:42:14;99808.31;;;18.44;
46015;BME280;36844;51.898;-0.874;2024-02-14T00:44:40;99825.06;;;18.55;
46015;BME280;36844;51.898;-0.874;2024-02-14T00:47:05;99814.41;;;18.48;
46015;BME280;36844;51.898;-0.874;2024-02-14T00:49:34;99837.00;;;18.54;
46015;BME280;36844;51.898;-0.874;2024-02-14T00:51:59;99832.91;;;18.46;
46015;BME280;36844;51.898;-0.874;2024-02-14T00:54:25;99846.25;;;18.53;
46015;BME280;36844;51.898;-0.874;2024-02-14T00:56:50;99817.22;;;18.41;
46015;BME280;36844;51.898;-0.874;2024-02-14T00:59:15;99835.97;;;18.48;
46015;BME280;36844;51.898;-0.874;2024-02-14T01:01:41;99834.25;;;18.38;
46015;BME280;36844;51.898;-0.874;2024-02-14T01:04:07;99832.31;;;18.38;
46015;BME280;36844;51.898;-0.874;2024-02-14T01:06:32;99818.47;;;18.36;
46015;BME280;36844;51.898;-0.874;2024-02-14T01:08:57;99833.75;;;18.43;
46015;BME280;36844;51.898;-0.874;2024-02-14T01:11:23;99841.06;;;18.42;
46015;BME280;36844;51.898;-0.874;2024-02-14T01:13:48;99821.28;;;18.29;
46015;BME280;36844;51.898;-0.874;2024-02-14T01:16:13;99836.56;;;18.36;
46015;BME280;36844;51.898;-0.874;2024-02-14T01:18:39;99837.06;;;18.31;
46015;BME280;36844;51.898;-0.874;2024-02-14T01:21:04;99842.47;;;18.31;
46015;BME280;36844;51.898;-0.874;2024-02-14T01:23:31;99844.44;;;18.27;
46015;BME280;36844;51.898;-0.874;2024-02-14T01:25:56;99836.75;;;18.25;
46015;BME280;36844;51.898;-0.874;2024-02-14T01:28:21;99841.38;;;18.25;
46015;BME280;36844;51.898;-0.874;2024-02-14T01:30:47;99831.22;;;18.13;
46015;BME280;36844;51.898;-0.874;2024-02-14T01:33:12;99851.78;;;18.26;
46015;BME280;36844;51.898;-0.874;2024-02-14T01:35:37;99860.19;;;18.28;
46015;BME280;36844;51.898;-0.874;2024-02-14T01:38:04;99846.50;;;18.19;
46015;BME280;36844;51.898;-0.874;2024-02-14T01:40:30;99856.84;;;18.21;
46015;BME280;36844;51.898;-0.874;2024-02-14T01:42:55;99848.03;;;18.20;
46015;BME280;36844;51.898;-0.874;2024-02-14T01:45:21;99859.16;;;18.22;
46015;BME280;36844;51.898;-0.874;2024-02-14T01:47:46;99852.78;;;18.13;
46015;BME280;36844;51.898;-0.874;2024-02-14T01:50:12;99848.19;;;18.10;
46015;BME280;36844;51.898;-0.874;2024-02-14T01:52:38;99847.41;;;18.13;
46015;BME280;36844;51.898;-0.874;2024-02-14T01:55:05;99843.22;;;18.08;
46015;BME280;36844;51.898;-0.874;2024-02-14T01:57:31;99867.69;;;18.17;
46015;BME280;36844;51.898;-0.874;2024-02-14T01:59:58;99862.81;;;18.12;
46015;BME280;36844;51.898;-0.874;2024-02-14T02:02:26;99866.59;;;18.15;
46015;BME280;36844;51.898;-0.874;2024-02-14T02:04:52;99872.03;;;18.11;
46015;BME280;36844;51.898;-0.874;2024-02-14T02:07:17;99861.69;;;18.10;
46015;BME280;36844;51.898;-0.874;2024-02-14T02:09:45;99858.69;;;18.04;
46015;BME280;36844;51.898;-0.874;2024-02-14T02:12:10;99866.34;;;18.06;
46015;BME280;36844;51.898;-0.874;2024-02-14T02:14:35;99872.88;;;18.08;
46015;BME280;36844;51.898;-0.874;2024-02-14T02:17:01;99863.38;;;18.00;
46015;BME280;36844;51.898;-0.874;2024-02-14T02:19:27;99869.53;;;18.01;
46015;BME280;36844;51.898;-0.874;2024-02-14T02:21:52;99872.94;;;18.05;
46015;BME280;36844;51.898;-0.874;2024-02-14T02:24:17;99867.16;;;18.03;
46015;BME280;36844;51.898;-0.874;2024-02-14T02:26:43;99875.25;;;18.03;
46015;BME280;36844;51.898;-0.874;2024-02-14T02:29:09;99867.63;;;17.98;
46015;BME280;36844;51.898;-0.874;2024-02-14T02:31:34;99859.25;;;17.92;
46015;BME280;36844;51.898;-0.874;2024-02-14T02:33:59;99874.16;;;18.00;
46015;BME280;36844;51.898;-0.874;2024-02-14T02:36:25;99866.97;;;17.90;
46015;BME280;36844;51.898;-0.874;2024-02-14T02:38:50;99883.81;;;17.98;
46015;BME280;36844;51.898;-0.874;2024-02-14T02:41:16;99874.25;;;17.93;
46015;BME280;36844;51.898;-0.874;2024-02-14T02:43:42;99871.91;;;17.95;
46015;BME280;36844;51.898;-0.874;2024-02-14T02:46:11;99870.38;;;17.94;
46015;BME280;36844;51.898;-0.874;2024-02-14T02:48:36;99863.94;;;17.88;
46015;BME280;36844;51.898;-0.874;2024-02-14T02:51:01;99875.41;;;17.92;
46015;BME280;36844;51.898;-0.874;2024-02-14T02:53:27;99873.19;;;17.87;
46015;BME280;36844;51.898;-0.874;2024-02-14T02:55:52;99864.69;;;17.89;
46015;BME280;36844;51.898;-0.874;2024-02-14T02:58:19;99856.31;;;17.83;
46015;BME280;36844;51.898;-0.874;2024-02-14T03:00:46;99865.47;;;17.89;
46015;BME280;36844;51.898;-0.874;2024-02-14T03:03:14;99861.66;;;17.87;
46015;BME280;36844;51.898;-0.874;2024-02-14T03:05:39;99846.03;;;17.74;
46015;BME280;36844;51.898;-0.874;2024-02-14T03:08:05;99858.34;;;17.75;
46015;BME280;36844;51.898;-0.874;2024-02-14T03:10:32;99846.53;;;17.69;
46015;BME280;36844;51.898;-0.874;2024-02-14T03:12:57;99841.84;;;17.73;
46015;BME280;36844;51.898;-0.874;2024-02-14T03:15:23;99837.63;;;17.72;
46015;BME280;36844;51.898;-0.874;2024-02-14T03:17:50;99849.06;;;17.80;
46015;BME280;36844;51.898;-0.874;2024-02-14T03:20:16;99859.44;;;17.82;
46015;BME280;36844;51.898;-0.874;2024-02-14T03:22:42;99842.31;;;17.68;
46015;BME280;36844;51.898;-0.874;2024-02-14T03:25:12;99856.38;;;17.80;
46015;BME280;36844;51.898;-0.874;2024-02-14T03:27:38;99843.47;;;17.67;
46015;BME280;36844;51.898;-0.874;2024-02-14T03:30:03;99849.97;;;17.70;
46015;BME280;36844;51.898;-0.874;2024-02-14T03:32:30;99850.28;;;17.75;
46015;BME280;36844;51.898;-0.874;2024-02-14T03:34:55;99846.53;;;17.69;
46015;BME280;36844;51.898;-0.874;2024-02-14T03:37:20;99843.84;;;17.69;
46015;BME280;36844;51.898;-0.874;2024-02-14T03:39:45;99835.06;;;17.65;
46015;BME280;36844;51.898;-0.874;2024-02-14T03:42:12;99845.72;;;17.72;
46015;BME280;36844;51.898;-0.874;2024-02-14T03:44:37;99845.34;;;17.70;
46015;BME280;36844;51.898;-0.874;2024-02-14T03:47:03;99819.00;;;17.58;
46015;BME280;36844;51.898;-0.874;2024-02-14T03:49:29;99834.59;;;17.70;
46015;BME280;36844;51.898;-0.874;2024-02-14T03:51:55;99843.84;;;17.69;
46015;BME280;36844;51.898;-0.874;2024-02-14T03:54:21;99845.78;;;17.69;
46015;BME280;36844;51.898;-0.874;2024-02-14T03:56:46;99820.66;;;17.49;
46015;BME280;36844;51.898;-0.874;2024-02-14T03:59:12;99842.03;;;17.59;
46015;BME280;36844;51.898;-0.874;2024-02-14T04:01:37;99834.34;;;17.61;
46015;BME280;36844;51.898;-0.874;2024-02-14T04:04:03;99843.88;;;17.66;
46015;BME280;36844;51.898;-0.874;2024-02-14T04:06:29;99840.13;;;17.60;
46015;BME280;36844;51.898;-0.874;2024-02-14T04:08:57;99846.22;;;17.64;
46015;BME280;36844;51.898;-0.874;2024-02-14T04:11:22;99834.66;;;17.63;
46015;BME280;36844;51.898;-0.874;2024-02-14T04:13:47;99826.31;;;17.58;
46015;BME280;36844;51.898;-0.874;2024-02-14T04:16:12;99834.34;;;17.61;
46015;BME280;36844;51.898;-0.874;2024-02-14T04:18:38;99832.47;;;17.58;
46015;BME280;36844;51.898;-0.874;2024-02-14T04:21:03;99829.81;;;17.55;
46015;BME280;36844;51.898;-0.874;2024-02-14T04:23:29;99838.19;;;17.60;
46015;BME280;36844;51.898;-0.874;2024-02-14T04:25:54;99847.41;;;17.59;
46015;BME280;36844;51.898;-0.874;2024-02-14T04:28:20;99852.88;;;17.56;
46015;BME280;36844;51.898;-0.874;2024-02-14T04:30:45;99829.94;;;17.44;
46015;BME280;36844;51.898;-0.874;2024-02-14T04:33:10;99834.56;;;17.47;
46015;BME280;36844;51.898;-0.874;2024-02-14T04:35:36;99853.63;;;17.56;
46015;BME280;36844;51.898;-0.874;2024-02-14T04:38:01;99827.66;;;17.46;
46015;BME280;36844;51.898;-0.874;2024-02-14T04:40:27;99837.53;;;17.53;
46015;BME280;36844;51.898;-0.874;2024-02-14T04:42:53;99831.88;;;17.47;
46015;BME280;36844;51.898;-0.874;2024-02-14T04:45:18;99833.34;;;17.48;
46015;BME280;36844;51.898;-0.874;2024-02-14T04:47:43;99848.31;;;17.53;
46015;BME280;36844;51.898;-0.874;2024-02-14T04:50:09;99836.88;;;17.45;
46015;BME280;36844;51.898;-0.874;2024-02-14T04:52:35;99858.41;;;17.45;
46015;BME280;36844;51.898;-0.874;2024-02-14T04:55:00;99858.41;;;17.45;
46015;BME280;36844;51.898;-0.874;2024-02-14T04:57:25;99850.75;;;17.40;
46015;BME280;36844;51.898;-0.874;2024-02-14T04:59:51;99846.59;;;17.39;
46015;BME280;36844;51.898;-0.874;2024-02-14T05:02:16;99852.63;;;17.47;
46015;BME280;36844;51.898;-0.874;2024-02-14T05:04:42;99859.50;;;17.48;
46015;BME280;36844;51.898;-0.874;2024-02-14T05:07:07;99837.78;;;17.35;
46015;BME280;36844;51.898;-0.874;2024-02-14T05:09:33;99852.69;;;17.43;
46015;BME280;36844;51.898;-0.874;2024-02-14T05:11:58;99853.41;;;17.44;
46015;BME280;36844;51.898;-0.874;2024-02-14T05:14:24;99854.72;;;17.36;
46015;BME280;36844;51.898;-0.874;2024-02-14T05:16:49;99848.13;;;17.37;
46015;BME280;36844;51.898;-0.874;2024-02-14T05:19:14;99861.56;;;17.37;
46015;BME280;36844;51.898;-0.874;2024-02-14T05:21:40;99863.94;;;17.35;
46015;BME280;36844;51.898;-0.874;2024-02-14T05:24:05;99860.13;;;17.32;
46015;BME280;36844;51.898;-0.874;2024-02-14T05:26:31;99870.81;;;17.39;
46015;BME280;36844;51.898;-0.874;2024-02-14T05:28:57;99876.91;;;17.43;
46015;BME280;36844;51.898;-0.874;2024-02-14T05:31:22;99864.66;;;17.39;
46015;BME280;36844;51.898;-0.874;2024-02-14T05:33:47;99873.84;;;17.41;
46015;BME280;36844;51.898;-0.874;2024-02-14T05:36:13;99874.66;;;17.38;
46015;BME280;36844;51.898;-0.874;2024-02-14T05:38:38;99870.47;;;17.34;
46015;BME280;36844;51.898;-0.874;2024-02-14T05:41:03;99870.88;;;17.32;
46015;BME280;36844;51.898;-0.874;2024-02-14T05:43:29;99876.56;;;17.38;
46015;BME280;36844;51.898;-0.874;2024-02-14T05:45:54;99862.50;;;17.27;
46015;BME280;36844;51.898;-0.874;2024-02-14T05:48:20;99877.34;;;17.38;
46015;BME280;36844;51.898;-0.874;2024-02-14T05:50:45;99885.03;;;17.36;
46015;BME280;36844;51.898;-0.874;2024-02-14T05:53:11;99871.56;;;17.36;
46015;BME280;36844;51.898;-0.874;2024-02-14T05:55:37;99853.38;;;17.17;
46015;BME280;36844;51.898;-0.874;2024-02-14T05:58:03;99878.59;;;17.30;
46015;BME280;36844;51.898;-0.874;2024-02-14T06:00:28;99882.00;;;17.34;
46015;BME280;36844;51.898;-0.874;2024-02-14T06:02:54;99876.72;;;17.27;
46015;BME280;36844;51.898;-0.874;2024-02-14T06:05:19;99878.59;;;17.30;
46015;BME280;36844;51.898;-0.874;2024-02-14T06:07:45;99878.25;;;17.28;
46015;BME280;36844;51.898;-0.874;2024-02-14T06:10:11;99877.78;;;17.33;
46015;BME280;36844;51.898;-0.874;2024-02-14T06:12:36;99881.66;;;17.32;
46015;BME280;36844;51.898;-0.874;2024-02-14T06:15:02;99882.81;;;17.31;
46015;BME280;36844;51.898;-0.874;2024-02-14T06:17:27;99859.50;;;17.18;
46015;BME280;36844;51.898;-0.874;2024-02-14T06:19:53;99874.47;;;17.22;
46015;BME280;36844;51.898;-0.874;2024-02-14T06:22:19;99882.47;;;17.26;
46015;BME280;36844;51.898;-0.874;2024-02-14T06:24:45;99859.94;;;17.16;
46015;BME280;36844;51.898;-0.874;2024-02-14T06:27:13;99867.94;;;17.23;
46015;BME280;36844;51.898;-0.874;2024-02-14T06:29:42;99859.50;;;17.21;
46015;BME280;36844;51.898;-0.874;2024-02-14T06:32:07;99870.19;;;17.28;
46015;BME280;36844;51.898;-0.874;2024-02-14T06:34:32;99852.22;;;17.18;
46015;BME280;36844;51.898;-0.874;2024-02-14T06:36:57;99853.75;;;17.19;
46015;BME280;36844;51.898;-0.874;2024-02-14T06:39:23;99842.28;;;17.15;
46015;BME280;36844;51.898;-0.874;2024-02-14T06:41:48;99854.19;;;17.14;
46015;BME280;36844;51.898;-0.874;2024-02-14T06:44:13;99879.78;;;17.26;
46015;BME280;36844;51.898;-0.874;2024-02-14T06:46:39;99871.88;;;17.15;
46015;BME280;36844;51.898;-0.874;2024-02-14T06:49:04;99887.09;;;17.25;
46015;BME280;36844;51.898;-0.874;2024-02-14T06:51:30;99889.78;;;17.25;
46015;BME280;36844;51.898;-0.874;2024-02-14T06:53:55;99892.53;;;17.22;
46015;BME280;36844;51.898;-0.874;2024-02-14T06:56:21;99885.28;;;17.19;
46015;BME280;36844;51.898;-0.874;2024-02-14T06:58:46;99879.56;;;17.17;
46015;BME280;36844;51.898;-0.874;2024-02-14T07:01:17;99887.88;;;17.26;
46015;BME280;36844;51.898;-0.874;2024-02-14T07:03:47;99892.88;;;17.27;
46015;BME280;36844;51.898;-0.874;2024-02-14T07:06:12;99890.19;;;17.27;
46015;BME280;36844;51.898;-0.874;2024-02-14T07:08:40;99871.81;;;17.19;
46015;BME280;36844;51.898;-0.874;2024-02-14T07:11:05;99882.09;;;17.27;
46015;BME280;36844;51.898;-0.874;2024-02-14T07:13:31;99898.97;;;17.31;
46015;BME280;36844;51.898;-0.874;2024-02-14T07:15:56;99876.38;;;17.22;
46015;BME280;36844;51.898;-0.874;2024-02-14T07:18:21;99873.66;;;17.25;
46015;BME280;36844;51.898;-0.874;2024-02-14T07:20:47;99896.13;;;17.42;
46015;BME280;36844;51.898;-0.874;2024-02-14T07:23:12;99879.28;;;17.38;
46015;BME280;36844;51.898;-0.874;2024-02-14T07:25:37;99871.97;;;17.38;
46015;BME280;36844;51.898;-0.874;2024-02-14T07:28:03;99893.03;;;17.47;
46015;BME280;36844;51.898;-0.874;2024-02-14T07:30:28;99898.69;;;17.52;
46015;BME280;36844;51.898;-0.874;2024-02-14T07:32:53;99915.91;;;17.62;
46015;BME280;36844;51.898;-0.874;2024-02-14T07:35:19;99906.31;;;17.57;
46015;BME280;36844;51.898;-0.874;2024-02-14T07:37:44;99903.19;;;17.62;
46015;BME280;36844;51.898;-0.874;2024-02-14T07:40:10;99904.59;;;17.70;
46015;BME280;36844;51.898;-0.874;2024-02-14T07:42:35;99903.78;;;17.73;
46015;BME280;36844;51.898;-0.874;2024-02-14T07:45:01;99919.00;;;17.87;
46015;BME280;36844;51.898;-0.874;2024-02-14T07:47:28;99922.84;;;17.86;
46015;BME280;36844;51.898;-0.874;2024-02-14T07:49:54;99934.63;;;17.96;
46015;BME280;36844;51.898;-0.874;2024-02-14T07:52:20;99902.78;;;17.91;
46015;BME280;36844;51.898;-0.874;2024-02-14T07:54:46;99931.81;;;18.03;
46015;BME280;36844;51.898;-0.874;2024-02-14T07:57:11;99930.63;;;18.07;
46015;BME280;36844;51.898;-0.874;2024-02-14T07:59:37;99909.47;;;18.06;
46015;BME280;36844;51.898;-0.874;2024-02-14T08:02:02;99887.56;;;18.04;
46015;BME280;36844;51.898;-0.874;2024-02-14T08:04:27;99902.16;;;18.06;
46015;BME280;36844;51.898;-0.874;2024-02-14T08:06:53;99912.06;;;18.13;
46015;BME280;36844;51.898;-0.874;2024-02-14T08:09:18;99925.00;;;18.21;
46015;BME280;36844;51.898;-0.874;2024-02-14T08:11:43;99918.06;;;18.24;
46015;BME280;36844;51.898;-0.874;2024-02-14T08:14:09;99911.13;;;18.23;
46015;BME280;36844;51.898;-0.874;2024-02-14T08:16:34;99907.28;;;18.24;
46015;BME280;36844;51.898;-0.874;2024-02-14T08:19:01;99915.63;;;18.29;
46015;BME280;36844;51.898;-0.874;2024-02-14T08:21:27;99911.78;;;18.30;
46015;BME280;36844;51.898;-0.874;2024-02-14T08:23:53;99895.28;;;18.25;
46015;BME280;36844;51.898;-0.874;2024-02-14T08:26:19;99910.19;;;18.33;
46015;BME280;36844;51.898;-0.874;2024-02-14T08:28:44;99910.94;;;18.33;
46015;BME280;36844;51.898;-0.874;2024-02-14T08:31:12;99892.19;;;18.26;
46015;BME280;36844;51.898;-0.874;2024-02-14T08:33:38;99901.81;;;18.27;
46015;BME280;36844;51.898;-0.874;2024-02-14T08:36:04;99912.03;;;18.36;
46015;BME280;36844;51.898;-0.874;2024-02-14T08:38:30;99917.94;;;18.31;
46015;BME280;36844;51.898;-0.874;2024-02-14T08:40:55;99928.22;;;18.36;
46015;BME280;36844;51.898;-0.874;2024-02-14T08:43:22;99918.31;;;18.29;
46015;BME280;36844;51.898;-0.874;2024-02-14T08:45:49;99917.09;;;18.34;
46015;BME280;36844;51.898;-0.874;2024-02-14T08:48:16;99917.94;;;18.31;
46015;BME280;36844;51.898;-0.874;2024-02-14T08:50:42;99933.28;;;18.34;
46015;BME280;36844;51.898;-0.874;2024-02-14T08:53:07;99933.28;;;18.34;
46015;BME280;36844;51.898;-0.874;2024-02-14T08:55:32;99921.09;;;18.26;
46015;BME280;36844;51.898;-0.874;2024-02-14T08:58:00;99921.13;;;18.22;
46015;BME280;36844;51.898;-0.874;2024-02-14T09:00:25;99919.53;;;18.25;
46015;BME280;36844;51.898;-0.874;2024-02-14T09:02:52;99930.22;;;18.32;
46015;BME280;36844;51.898;-0.874;2024-02-14T09:05:18;99923.78;;;18.26;
46015;BME280;36844;51.898;-0.874;2024-02-14T09:07:44;99934.50;;;18.29;
46015;BME280;36844;51.898;-0.874;2024-02-14T09:10:09;99925.75;;;18.22;
46015;BME280;36844;51.898;-0.874;2024-02-14T09:12:38;99930.25;;;18.28;
46015;BME280;36844;51.898;-0.874;2024-02-14T09:15:04;99928.13;;;18.20;
46015;BME280;36844;51.898;-0.874;2024-02-14T09:17:30;99927.69;;;18.21;
46015;BME280;36844;51.898;-0.874;2024-02-14T09:19:55;99931.09;;;18.25;
46015;BME280;36844;51.898;-0.874;2024-02-14T09:22:20;99917.78;;;18.15;
46015;BME280;36844;51.898;-0.874;2024-02-14T09:24:47;99932.69;;;18.23;
46015;BME280;36844;51.898;-0.874;2024-02-14T09:27:13;99932.38;;;18.17;
46015;BME280;36844;51.898;-0.874;2024-02-14T09:29:38;99940.41;;;18.21;
46015;BME280;36844;51.898;-0.874;2024-02-14T09:32:04;99932.09;;;18.12;
46015;BME280;36844;51.898;-0.874;2024-02-14T09:34:30;99932.16;;;18.08;
46015;BME280;36844;51.898;-0.874;2024-02-14T09:36:56;99945.09;;;18.17;
46015;BME280;36844;51.898;-0.874;2024-02-14T09:39:23;99941.41;;;18.07;
46015;BME280;36844;51.898;-0.874;2024-02-14T09:41:54;99956.63;;;18.17;
46015;BME280;36844;51.898;-0.874;2024-02-14T09:44:21;99942.53;;;18.10;
46015;BME280;36844;51.898;-0.874;2024-02-14T09:46:47;99924.47;;;18.07;
46015;BME280;36844;51.898;-0.874;2024-02-14T09:49:14;99931.38;;;18.08;
46015;BME280;36844;51.898;-0.874;2024-02-14T09:51:43;99939.88;;;18.06;
46015;BME280;36844;51.898;-0.874;2024-02-14T09:54:10;99950.97;;;18.12;
46015;BME280;36844;51.898;-0.874;2024-02-14T09:56:36;99948.31;;;18.08;
46015;BME280;36844;51.898;-0.874;2024-02-14T09:59:02;99946.06;;;18.03;
46015;BME280;36844;51.898;-0.874;2024-02-14T10:01:28;99944.16;;;18.04;
46015;BME280;36844;51.898;-0.874;2024-02-14T10:03:54;99940.03;;;17.96;
46015;BME280;36844;51.898;-0.874;2024-02-14T10:06:20;99950.25;;;18.08;
46015;BME280;36844;51.898;-0.874;2024-02-14T10:08:46;99948.75;;;18.03;
46015;BME280;36844;51.898;-0.874;2024-02-14T10:11:12;99945.69;;;18.05;
46015;BME280;36844;51.898;-0.874;2024-02-14T10:13:39;99955.34;;;18.02;
46015;BME280;36844;51.898;-0.874;2024-02-14T10:16:05;99948.50;;;17.94;
46015;BME280;36844;51.898;-0.874;2024-02-14T10:18:33;99958.44;;;18.01;
46015;BME280;36844;51.898;-0.874;2024-02-14T10:20:58;99960.78;;;17.99;
46015;BME280;36844;51.898;-0.874;2024-02-14T10:23:23;99952.75;;;17.95;
46015;BME280;36844;51.898;-0.874;2024-02-14T10:25:50;99947.72;;;17.97;
46015;BME280;36844;51.898;-0.874;2024-02-14T10:28:16;99956.84;;;18.03;
46015;BME280;36844;51.898;-0.874;2024-02-14T10:30:45;99949.19;;;18.02;
46015;BME280;36844;51.898;-0.874;2024-02-14T10:33:11;99970.69;;;18.05;
46015;BME280;36844;51.898;-0.874;2024-02-14T10:35:37;99961.53;;;17.99;
46015;BME280;36844;51.898;-0.874;2024-02-14T10:38:03;99947.75;;;17.94;
46015;BME280;36844;51.898;-0.874;2024-02-14T10:40:32;99952.28;;;18.00;
46015;BME280;36844;51.898;-0.874;2024-02-14T10:42:57;99940.44;;;17.94;
46015;BME280;36844;51.898;-0.874;2024-02-14T10:45:24;99965.69;;;18.04;
46015;BME280;36844;51.898;-0.874;2024-02-14T10:47:51;99964.94;;;18.03;
46015;BME280;36844;51.898;-0.874;2024-02-14T10:50:17;99970.00;;;17.98;
46015;BME280;36844;51.898;-0.874;2024-02-14T10:52:44;99969.28;;;17.94;
46015;BME280;36844;51.898;-0.874;2024-02-14T10:55:11;99983.47;;;18.01;
46015;BME280;36844;51.898;-0.874;2024-02-14T10:57:37;99988.09;;;18.01;
46015;BME280;36844;51.898;-0.874;2024-02-14T11:00:14;99974.69;;;17.94;
46015;BME280;36844;51.898;-0.874;2024-02-14T11:02:41;99976.28;;;17.91;
46015;BME280;36844;51.898;-0.874;2024-02-14T11:05:13;99990.06;;;17.97;
46015;BME280;36844;51.898;-0.874;2024-02-14T11:07:44;99979.34;;;17.93;
46015;BME280;36844;51.898;-0.874;2024-02-14T11:10:13;99988.50;;;17.96;
46015;BME280;36844;51.898;-0.874;2024-02-14T11:12:40;99981.66;;;17.91;
46015;BME280;36844;51.898;-0.874;2024-02-14T11:15:24;99985.88;;;17.92;
46015;BME280;36844;51.898;-0.874;2024-02-14T11:17:50;99977.84;;;17.89;
46015;BME280;36844;51.898;-0.874;2024-02-14T11:20:20;99996.66;;;17.92;
46015;BME280;36844;51.898;-0.874;2024-02-14T11:23:01;99993.97;;;17.92;
46015;BME280;36844;51.898;-0.874;2024-02-14T11:25:29;100007.44;;;17.92;
46015;BME280;36844;51.898;-0.874;2024-02-14T11:27:56;100004.06;;;17.85;
46015;BME280;36844;51.898;-0.874;2024-02-14T11:30:33;99994.81;;;17.86;
46015;BME280;36844;51.898;-0.874;2024-02-14T11:33:20;99982.50;;;17.85;
46015;BME280;36844;51.898;-0.874;2024-02-14T11:35:47;99991.34;;;17.85;
46015;BME280;36844;51.898;-0.874;2024-02-14T11:38:15;99989.44;;;17.86;
46015;BME280;36844;51.898;-0.874;2024-02-14T11:40:40;99989.06;;;17.84;
46015;BME280;36844;51.898;-0.874;2024-02-14T11:43:17;99990.53;;;17.88;
46015;BME280;36844;51.898;-0.874;2024-02-14T11:45:43;99992.50;;;17.88;
46015;BME280;36844;51.898;-0.874;2024-02-14T11:48:13;99998.63;;;17.88;
46015;BME280;36844;51.898;-0.874;2024-02-14T11:50:40;99992.13;;;17.86;
46015;BME280;36844;51.898;-0.874;2024-02-14T11:53:06;99992.88;;;17.86;
46015;BME280;36844;51.898;-0.874;2024-02-14T11:55:34;99963.41;;;17.75;
46015;BME280;36844;51.898;-0.874;2024-02-14T11:58:02;99987.16;;;17.84;
46015;BME280;36844;51.898;-0.874;2024-02-14T12:00:27;99987.91;;;17.85;
46015;BME280;36844;51.898;-0.874;2024-02-14T12:02:53;99979.13;;;17.81;
46015;BME280;36844;51.898;-0.874;2024-02-14T12:05:19;99981.81;;;17.81;
46015;BME280;36844;51.898;-0.874;2024-02-14T12:07:44;99978.34;;;17.80;
46015;BME280;36844;51.898;-0.874;2024-02-14T12:10:10;99955.06;;;17.66;
46015;BME280;36844;51.898;-0.874;2024-02-14T12:12:37;99986.47;;;17.77;
46015;BME280;36844;51.898;-0.874;2024-02-14T12:15:03;99979.66;;;17.68;
46015;BME280;36844;51.898;-0.874;2024-02-14T12:17:29;99980.31;;;17.76;
46015;BME280;36844;51.898;-0.874;2024-02-14T12:20:07;99980.22;;;17.83;
46015;BME280;36844;51.898;-0.874;2024-02-14T12:22:34;99977.94;;;17.82;
46015;BME280;36844;51.898;-0.874;2024-02-14T12:24:59;99980.31;;;17.76;
46015;BME280;36844;51.898;-0.874;2024-02-14T12:27:25;99985.25;;;17.81;
46015;BME280;36844;51.898;-0.874;2024-02-14T12:29:51;99987.53;;;17.83;
46015;BME280;36844;51.898;-0.874;2024-02-14T12:32:17;99976.44;;;17.81;
46015;BME280;36844;51.898;-0.874;2024-02-14T12:34:44;99979.75;;;17.88;
46015;BME280;36844;51.898;-0.874;2024-02-14T12:37:09;99980.91;;;17.91;
46015;BME280;36844;51.898;-0.874;2024-02-14T12:39:36;99965.09;;;17.93;
46015;BME280;36844;51.898;-0.874;2024-02-14T12:42:03;99960.13;;;17.91;
46015;BME280;36844;51.898;-0.874;2024-02-14T12:44:28;99963.91;;;17.94;
46015;BME280;36844;51.898;-0.874;2024-02-14T12:46:54;99941.69;;;17.86;
46015;BME280;36844;51.898;-0.874;2024-02-14T12:49:19;99963.06;;;18.00;
46015;BME280;36844;51.898;-0.874;2024-02-14T12:51:45;99972.25;;;18.03;
46015;BME280;36844;51.898;-0.874;2024-02-14T12:54:10;99967.56;;;18.07;
46015;BME280;36844;51.898;-0.874;2024-02-14T12:56:37;99963.38;;;18.06;
46015;BME280;36844;51.898;-0.874;2024-02-14T12:59:02;99978.69;;;18.12;
46015;BME280;36844;51.898;-0.874;2024-02-14T13:01:28;99972.41;;;18.19;
46015;BME280;36844;51.898;-0.874;2024-02-14T13:03:53;99970.88;;;18.18;
46015;BME280;36844;51.898;-0.874;2024-02-14T13:06:18;99965.53;;;18.14;
46015;BME280;36844;51.898;-0.874;2024-02-14T13:08:44;99967.78;;;18.19;
46015;BME280;36844;51.898;-0.874;2024-02-14T13:11:09;99984.16;;;18.32;
46015;BME280;36844;51.898;-0.874;2024-02-14T13:13:35;99967.22;;;18.31;
46015;BME280;36844;51.898;-0.874;2024-02-14T13:16:01;99993.31;;;18.38;
46015;BME280;36844;51.898;-0.874;2024-02-14T13:18:26;99969.47;;;18.33;
46015;BME280;36844;51.898;-0.874;2024-02-14T13:20:51;99983.56;;;18.44;
46015;BME280;36844;51.898;-0.874;2024-02-14T13:23:22;99981.63;;;18.44;
46015;BME280;36844;51.898;-0.874;2024-02-14T13:25:48;99969.03;;;18.38;
46015;BME280;36844;51.898;-0.874;2024-02-14T13:28:14;99990.03;;;18.50;
46015;BME280;36844;51.898;-0.874;2024-02-14T13:30:39;99977.78;;;18.45;
46015;BME280;36844;51.898;-0.874;2024-02-14T13:33:05;99977.78;;;18.45;
46015;BME280;36844;51.898;-0.874;2024-02-14T13:35:30;99993.78;;;18.56;
46015;BME280;36844;51.898;-0.874;2024-02-14T13:37:57;99993.84;;;18.52;